Avondale, Washington
Current Conditions -  °F | °C
As of 11:53 PM on Monday 20 Oct 2014 (Local Time) from KBFI Reporting Station
Broken Clouds Broken Clouds  
Wind Chill: 56°   Ceiling: 7000
Heat Index: 56°   Visibility: 10mi
Dew Point: 52°   Wind: 6mph
Humidity: 87%   Direction: 140°SE
Pressure: 29.8"   Gusts: NA
Location:  47.6833°N, 122.123°W
Report Text: KBFI 210653Z 14005KT 10SM BKN070 13/11 A2980 RMK AO2 SLP091 T01330111
Loading
Personal Weather Stations






























Interactive Weather Map
Tropical Storm Tracking
New forecast layout! Learn more

10-Day Weather Forecast

Advertisements
Track Severe Weather on mobile